SLTJSLVR

Guest
Details From SLTJ - CAPITAN ORIEL LEA PLAZA
To SLVR - VIRU VIRU INTL
Flight Number -
Tags generated
Created
Modified
Stats Distance 251 nm / 465 km
Max Altitude 29,000 ft / 8,839 m
Waypoints 5
Social Downloads 1
Likes 0
Share VATSIM

Download

Looking for another format? Having issues loading an existing format? Contact us
Advertisement - Login to hide

Notes

Basic altitude profile: - Ascent Rate: 2400ft/min - Ascent Speed: 250kts - Cruise Altitude: 28000ft - Cruise Speed: 330kts - Descent Rate: 2500ft/min - Descent Speed: 250kts Options: - Use NATs: yes - Use PACOTS: yes - Use low airways: no - Use high airways: yes

Route

SLTJ ASUVO UA316 LOBAR SLVR

ID Type Via Altitude Latitude Longitude Leg Dist Tot Dist Heading (true) Name
O SLTJ APT - 0 ft / 0 m -21.55574˚ -64.70133˚ - 0 nm - CAPITAN ORIEL LEA PLAZA
ASUVO FIX - 11,700 ft / 3,566 m -21.05576˚ -64.46316˚ 32 nm 32 nm 24° / 24° -
ASIRO FIX UA316 (AWY-HI) 29,000 ft / 8,839 m -19.75437˚ -63.97729˚ 82 nm 115 nm 19° / 19° -
LOBAR FIX UA316 (AWY-HI) 23,500 ft / 7,163 m -18.87604˚ -63.64505˚ 56 nm 171 nm 20° / 20° -
O SLVR APT - 0 ft / 0 m -17.64476˚ -63.13536˚ 79 nm 251 nm 22° / 21° VIRU VIRU INTL

Altitude Profile

Advertisement - Login to hide

Weather


0- 5 10 15 20 25 30 35+ Temperature / ° C

Clouds and Precipitation
Forecast for 2018-05-27 18:00 UTC. Updated 2 hours ago

Ground ~20,000 ft ~40,000 ft Winds

SLTJ

Details ICAO SLTJ (TJA)
Name CAPITAN ORIEL LEA PLAZA
Region Bolivia
Timezone America/La_Paz (UTC-4.0)
Stats Elevation 6,084 ft / 1,854 m (AMSL)
Location -21.555737° -64.701326°
Runways 1
Magnetic Variation 9.486° W

METAR

SLTJ 271900Z 15005KT 9999 NSC 28/05 Q1015

Decode

TAF

Not found

Departure Runways

ID Width Length Bearing (true) Bearing (mag) Surface Threshold Offset Overrun Length
13 148 ft / 45 m 9,970 ft / 3,039 m 124.42° 133.91° Asphalt 0 ft / 0 m 0 ft / 0 m
31 148 ft / 45 m 9,970 ft / 3,039 m 304.41° 313.90° Asphalt 0 ft / 0 m 0 ft / 0 m

SLVR

Details ICAO SLVR (VVI)
Name VIRU VIRU INTL
Region Bolivia
Timezone America/La_Paz (UTC-4.0)
Stats Elevation 1,225 ft / 373 m (AMSL)
Location -17.644755° -63.135362°
Runways 1
Magnetic Variation 11.978° W

METAR

SLVR 271900Z 35012G22KT 9999 SCT017 29/20 Q1013

Decode

TAF

Not found

Destination Runways

ID Width Length Bearing (true) Bearing (mag) Surface Threshold Offset Overrun Length
16 148 ft / 45 m 11,519 ft / 3,511 m 147.35° 159.33° Concrete 0 ft / 0 m 197 ft / 60 m
34 148 ft / 45 m 11,519 ft / 3,511 m 327.34° 339.32° Concrete 0 ft / 0 m 197 ft / 60 m

Approach Navaids

Runway Type Ident Frequency Range Bearing (true) Bearing (mag) Slope Elevation
34 Localiser VCZ 110.90 MHz 18 nm / 33 km 327.34° 339.32° - 1,224 ft / 373 m (AMSL)
34 Glidescope VCZ 110.90 MHz 10 nm / 19 km 327.34° 339.32° 3.00° 1,224 ft / 373 m (AMSL)

Popular Alternatives